Ganserndorf, Austria
Current Conditions -  °F | °C
As of 2:20 AM on Tuesday 25 Nov 2014 (Local Time) from LOWW Reporting Station
Light Rain Light Rain  
Wind Chill: 39°   Ceiling: 2200
Heat Index: 39°   Visibility: 4mi
Dew Point: 37°   Wind: 3mph
Humidity: 93%   Direction: 120°ESE
Pressure: 30.33"   Gusts: NA
Location:  48.34°N, 16.72°E
Report Text: LOWW 250020Z 12003KT 6000 -RA FEW018 BKN022 04/03 Q1027 NOSIG
Loading
Personal Weather Stations






























Interactive Weather Map New forecast layout! Learn more

10-Day Weather Forecast

Advertisements
Track Severe Weather on mobile